KPIH

Pocatello Regional Airport

Pocatello, Idaho, USA
METAR KPIH 191053Z AUTO 23017G25KT 10SM OVC008 03/01 A3016 RMK AO2 PK WND 24028/1036 CIG 007V012 SLP217 T00280011
Observed Flight Rules
Dec-19 @ 10:53 UTC (46 minutes ago) Instrument Flight Rules
Wind Visibility Clouds
230° at 17 knots
 Gusting to 25 knots
10 miles
  • Overcast at 800' AGL
Temperatures Readings
Current 3°C / 37°F
Dewpoint 1°C / 34°F
Humidity 87%
Altimeter 30.16" Hg
Pressure 1021.7 hPa
Elevation 1359
METAR KPIH 191053Z AUTO 23017G25KT 10SM OVC008 03/01 A3016 RMK AO2 PK WND 24028/1036 CIG 007V012 SLP217 T00280011
Observed Flight Rules
Dec-19 @ 10:53 UTC
(46 minutes ago)
IFR
Wind Visibility
230° at 17 knots
 Gusting to 25 knots
10 miles
Clouds
  • Overcast at 800' AGL
Temperature Dewpoint
3°C / 37°F 1°C / 34°F
Humidity Altimeter Pressure
87% 30.16" Hg 1021.7 hPa